Time;durP1;ratioP1;P1;durP2;ratioP2;P2;SDS_P1;SDS_P2;PMS_P1;PMS_P2;Temp;Humidity;BMP_temperature;BMP_pressure;BME280_temperature;BME280_humidity;BME280_pressure;Samples;Min_cycle;Max_cycle;Signal;HPM_P1;HPM_P2
2023/09/02 00:00:32;;;;;;;25.45;22.33;;;13.60;99.90;;;;;;5014577;28;20033;-90
2023/09/02 00:02:57;;;;;;;24.77;20.38;;;13.60;99.90;;;;;;4979326;28;20485;-90
2023/09/02 00:05:24;;;;;;;23.75;20.33;;;13.60;99.90;;;;;;5011661;28;20032;-90
2023/09/02 00:07:49;;;;;;;25.17;20.85;;;13.60;99.90;;;;;;5015050;28;20048;-90
2023/09/02 00:10:15;;;;;;;21.40;18.23;;;13.60;99.90;;;;;;4993825;28;20041;-90
2023/09/02 00:12:41;;;;;;;23.27;19.25;;;13.60;99.90;;;;;;4981651;28;20402;-90
2023/09/02 00:15:08;;;;;;;23.13;20.27;;;13.60;99.90;;;;;;4989762;28;20049;-89
2023/09/02 00:17:34;;;;;;;23.88;19.30;;;13.50;99.90;;;;;;4989846;28;20128;-89
2023/09/02 00:19:59;;;;;;;21.80;18.58;;;13.50;99.90;;;;;;5003200;28;20069;-89
2023/09/02 00:22:25;;;;;;;22.40;18.23;;;13.50;99.90;;;;;;4993312;28;20696;-88
2023/09/02 00:24:51;;;;;;;21.23;17.88;;;13.40;99.90;;;;;;5006444;28;20083;-90
2023/09/02 00:27:17;;;;;;;26.20;19.35;;;13.40;99.90;;;;;;4984832;28;20049;-90
2023/09/02 00:29:42;;;;;;;18.55;16.33;;;13.40;99.90;;;;;;4988540;28;20448;-89
2023/09/02 00:32:08;;;;;;;22.05;18.42;;;13.40;99.90;;;;;;5005069;28;20038;-89
2023/09/02 00:34:34;;;;;;;22.08;17.27;;;13.40;99.90;;;;;;5006395;28;20061;-90
2023/09/02 00:37:00;;;;;;;21.58;17.27;;;13.40;99.90;;;;;;5010796;28;20041;-83
2023/09/02 00:39:26;;;;;;;17.25;15.00;;;13.40;99.90;;;;;;5008709;28;20297;-82
2023/09/02 00:41:57;;;;;;;18.05;14.70;;;13.40;99.90;;;;;;4994600;28;20049;-82
2023/09/02 00:44:23;;;;;;;18.30;16.13;;;13.50;99.90;;;;;;5009079;28;20041;-83
2023/09/02 00:46:49;;;;;;;16.67;13.63;;;13.40;99.90;;;;;;4994035;28;20041;-83
2023/09/02 00:49:15;;;;;;;14.20;12.15;;;13.40;99.90;;;;;;4994120;28;20052;-83
2023/09/02 00:51:40;;;;;;;16.60;13.05;;;13.40;99.90;;;;;;5019857;28;20041;-83
2023/09/02 00:54:06;;;;;;;16.13;13.70;;;13.40;99.90;;;;;;5021674;28;20053;-82
2023/09/02 00:56:32;;;;;;;16.25;13.43;;;13.40;99.90;;;;;;4994549;28;20127;-83
2023/09/02 00:59:03;;;;;;;19.48;15.05;;;13.40;99.90;;;;;;5027261;28;20034;-83
2023/09/02 01:01:32;;;;;;;18.25;15.20;;;13.40;99.90;;;;;;5014070;28;20045;-82
2023/09/02 01:03:59;;;;;;;15.38;12.18;;;13.40;99.90;;;;;;5029064;28;20053;-82
2023/09/02 01:06:25;;;;;;;15.38;12.45;;;13.40;99.90;;;;;;5013305;28;20045;-82
2023/09/02 01:08:51;;;;;;;19.65;15.15;;;13.40;99.90;;;;;;5009882;28;20053;-82
2023/09/02 01:11:17;;;;;;;18.75;14.70;;;13.40;99.90;;;;;;5027891;28;20383;-82
2023/09/02 01:13:43;;;;;;;15.95;13.80;;;13.30;99.90;;;;;;5027513;28;20040;-83
2023/09/02 01:16:09;;;;;;;16.85;14.02;;;13.30;99.90;;;;;;4995572;28;20045;-83
2023/09/02 01:18:36;;;;;;;17.00;13.88;;;13.30;99.90;;;;;;4990790;28;20048;-83
2023/09/02 01:21:58;;;;;;;16.98;13.52;;;13.30;99.90;;;;;;4991025;28;20297;-83
2023/09/02 01:24:42;;;;;;;14.15;12.60;;;13.30;99.90;;;;;;5008545;28;20050;-83
2023/09/02 01:27:19;;;;;;;15.98;13.52;;;13.30;99.90;;;;;;5008138;28;20045;-82
2023/09/02 01:30:05;;;;;;;15.95;12.73;;;13.30;99.90;;;;;;5020718;28;20042;-82
2023/09/02 01:32:43;;;;;;;17.63;14.50;;;13.30;99.90;;;;;;5000307;28;20120;-82
2023/09/02 01:35:12;;;;;;;19.58;15.05;;;13.20;99.90;;;;;;4999868;28;20042;-82
2023/09/02 01:37:43;;;;;;;19.73;15.25;;;13.20;99.90;;;;;;5012437;28;20037;-82
2023/09/02 01:40:14;;;;;;;14.93;13.20;;;13.20;99.90;;;;;;5021814;28;20029;-82
2023/09/02 01:42:42;;;;;;;17.52;14.70;;;13.20;99.90;;;;;;5001714;28;20044;-83
2023/09/02 01:45:10;;;;;;;18.90;14.95;;;13.20;99.90;;;;;;5000822;28;20037;-83
2023/09/02 01:47:38;;;;;;;16.23;13.30;;;13.10;99.90;;;;;;5010220;28;20040;-83
2023/09/02 01:50:07;;;;;;;18.33;14.27;;;13.20;99.90;;;;;;5022880;28;20038;-83
2023/09/02 01:52:33;;;;;;;18.02;13.10;;;13.20;99.90;;;;;;5009919;28;20041;-83
2023/09/02 01:54:59;;;;;;;14.32;12.82;;;13.20;99.90;;;;;;4994621;28;20044;-83
2023/09/02 01:57:25;;;;;;;15.38;13.20;;;13.20;99.90;;;;;;4999939;28;20483;-83
2023/09/02 01:59:51;;;;;;;17.33;13.05;;;13.20;99.90;;;;;;5008994;28;20037;-83
2023/09/02 02:02:16;;;;;;;18.13;13.15;;;13.10;99.90;;;;;;4989867;28;20038;-83
2023/09/02 02:04:48;;;;;;;21.83;10.80;;;13.10;99.90;;;;;;4994327;28;20041;-83
2023/09/02 02:07:14;;;;;;;11.15;9.82;;;13.10;99.90;;;;;;5016388;28;20041;-83
2023/09/02 02:09:46;;;;;;;15.50;11.57;;;13.00;99.90;;;;;;5015099;28;20101;-83
2023/09/02 02:12:12;;;;;;;15.88;12.50;;;13.00;99.90;;;;;;5028908;28;20095;-82
2023/09/02 02:14:38;;;;;;;20.10;14.43;;;13.00;99.90;;;;;;4994473;28;20064;-82
2023/09/02 02:17:06;;;;;;;17.88;13.73;;;12.90;99.90;;;;;;4999588;28;20046;-82
2023/09/02 02:19:33;;;;;;;15.82;13.95;;;12.80;99.90;;;;;;5027823;28;20042;-82
2023/09/02 02:21:58;;;;;;;19.98;13.75;;;12.80;99.90;;;;;;4985943;28;20397;-82
2023/09/02 02:24:25;;;;;;;15.93;12.73;;;12.80;99.90;;;;;;4995744;28;20041;-82
2023/09/02 02:26:51;;;;;;;14.18;12.68;;;12.80;99.90;;;;;;5016766;28;20144;-82
2023/09/02 02:29:17;;;;;;;20.92;13.50;;;12.80;99.90;;;;;;5009531;28;20049;-82
2023/09/02 02:31:43;;;;;;;13.77;11.30;;;12.80;99.90;;;;;;5029414;28;20044;-82
2023/09/02 02:34:08;;;;;;;14.23;12.35;;;12.70;99.90;;;;;;5023787;28;20037;-82
2023/09/02 02:36:34;;;;;;;15.63;12.75;;;12.70;99.90;;;;;;5010049;28;20084;-83
2023/09/02 02:39:00;;;;;;;14.98;12.82;;;12.70;99.90;;;;;;5016122;28;20485;-83
2023/09/02 02:41:26;;;;;;;15.43;13.00;;;12.70;99.90;;;;;;5010489;28;20132;-83
2023/09/02 02:43:52;;;;;;;14.98;12.30;;;12.70;99.90;;;;;;5005224;28;20055;-82
2023/09/02 02:46:17;;;;;;;28.13;11.55;;;12.70;99.90;;;;;;5012677;28;20041;-82
2023/09/02 02:48:43;;;;;;;16.98;12.25;;;12.60;99.90;;;;;;4991738;28;20049;-82
2023/09/02 02:51:09;;;;;;;14.30;11.93;;;12.60;99.90;;;;;;5007129;28;20405;-82
2023/09/02 02:53:36;;;;;;;16.73;13.05;;;12.60;99.90;;;;;;5019061;28;20061;-82
2023/09/02 02:56:02;;;;;;;18.50;12.38;;;12.60;99.90;;;;;;5025719;28;20045;-82
2023/09/02 02:58:29;;;;;;;15.55;12.77;;;12.50;99.90;;;;;;5013030;28;20040;-83
2023/09/02 03:01:04;;;;;;;16.90;13.68;;;12.50;99.90;;;;;;5009469;28;20046;-83
2023/09/02 03:03:30;;;;;;;17.25;13.77;;;12.50;99.90;;;;;;5011838;28;20034;-82
2023/09/02 03:05:56;;;;;;;17.30;14.20;;;12.50;99.90;;;;;;5007286;28;20143;-83
2023/09/02 03:08:22;;;;;;;15.93;13.10;;;12.60;99.90;;;;;;4999067;28;20120;-82
2023/09/02 03:10:56;;;;;;;18.48;14.13;;;12.60;99.90;;;;;;5027932;28;20506;-82
2023/09/02 03:13:23;;;;;;;18.63;13.68;;;12.60;99.90;;;;;;5008432;28;20444;-82
2023/09/02 03:15:53;;;;;;;17.38;13.13;;;12.50;99.90;;;;;;4999929;28;20045;-82
2023/09/02 03:18:19;;;;;;;18.92;14.13;;;12.50;99.90;;;;;;5015838;28;20113;-82
2023/09/02 03:20:45;;;;;;;21.17;14.43;;;12.50;99.90;;;;;;5003635;28;20045;-83
2023/09/02 03:23:11;;;;;;;16.75;12.80;;;12.50;99.90;;;;;;5024108;28;20041;-83
2023/09/02 03:25:37;;;;;;;15.48;13.13;;;12.50;99.90;;;;;;5014287;28;20093;-82
2023/09/02 03:28:04;;;;;;;18.27;13.70;;;12.50;99.90;;;;;;5005049;28;20119;-82
2023/09/02 03:30:30;;;;;;;15.88;13.05;;;12.50;99.90;;;;;;5029542;28;20037;-82
2023/09/02 03:32:56;;;;;;;16.65;13.13;;;12.50;99.90;;;;;;5003783;28;20041;-82
2023/09/02 03:35:22;;;;;;;16.48;13.88;;;12.50;99.90;;;;;;5026521;28;20044;-82
2023/09/02 03:37:48;;;;;;;16.42;13.80;;;12.50;99.90;;;;;;4977748;28;20448;-82
2023/09/02 03:40:15;;;;;;;15.05;12.52;;;12.50;99.90;;;;;;5005093;28;20371;-82
2023/09/02 03:42:41;;;;;;;14.75;12.70;;;12.50;99.90;;;;;;4993908;28;20069;-82
2023/09/02 03:45:09;;;;;;;16.83;13.18;;;12.60;99.90;;;;;;5027019;28;20038;-82
2023/09/02 03:47:35;;;;;;;17.52;13.52;;;12.60;99.90;;;;;;4983853;28;20041;-82
2023/09/02 03:50:02;;;;;;;21.13;14.30;;;12.60;99.90;;;;;;5012226;28;20045;-82
2023/09/02 03:52:27;;;;;;;18.50;14.23;;;12.60;99.90;;;;;;5011578;28;20041;-82
2023/09/02 03:54:53;;;;;;;17.83;13.77;;;12.50;99.90;;;;;;5006722;28;20053;-82
2023/09/02 03:57:19;;;;;;;18.25;13.85;;;12.60;99.90;;;;;;5004230;28;20043;-83
2023/09/02 03:59:45;;;;;;;15.88;12.82;;;12.60;99.90;;;;;;4997878;28;20033;-82
2023/09/02 04:02:11;;;;;;;16.10;13.45;;;12.60;99.90;;;;;;5023031;28;20068;-83
2023/09/02 04:04:36;;;;;;;21.77;15.95;;;12.70;99.90;;;;;;5011005;28;20053;-82
2023/09/02 04:07:02;;;;;;;15.73;13.30;;;12.70;99.90;;;;;;5020817;28;20095;-82
2023/09/02 04:09:28;;;;;;;18.90;16.15;;;12.70;99.90;;;;;;5011093;28;20092;-82
2023/09/02 04:11:54;;;;;;;21.02;14.90;;;12.70;99.90;;;;;;5012255;28;20045;-82
2023/09/02 04:14:20;;;;;;;18.63;14.50;;;12.60;99.90;;;;;;4988925;28;20088;-82
2023/09/02 04:16:46;;;;;;;20.80;13.77;;;12.60;99.90;;;;;;5023990;28;20049;-82
2023/09/02 04:19:11;;;;;;;18.00;13.63;;;12.70;99.90;;;;;;5010018;28;20052;-82
2023/09/02 04:21:37;;;;;;;22.92;14.73;;;12.70;99.90;;;;;;5015969;28;20095;-83
2023/09/02 04:24:03;;;;;;;20.15;14.65;;;12.70;99.90;;;;;;4984656;28;20499;-83
2023/09/02 04:26:29;;;;;;;20.15;15.02;;;12.70;99.90;;;;;;4977995;28;20052;-82
2023/09/02 04:28:55;;;;;;;21.83;13.63;;;12.70;99.90;;;;;;5006281;28;20038;-82
2023/09/02 04:31:22;;;;;;;22.50;15.82;;;12.70;99.90;;;;;;5025592;28;20037;-82
2023/09/02 04:33:48;;;;;;;20.60;13.88;;;12.60;99.90;;;;;;5008306;28;20477;-82
2023/09/02 04:36:14;;;;;;;25.70;16.45;;;12.60;99.90;;;;;;4991454;28;20045;-82
2023/09/02 04:38:40;;;;;;;21.52;15.05;;;12.50;99.90;;;;;;4987316;28;20040;-82
2023/09/02 04:41:08;;;;;;;19.55;15.48;;;12.50;99.90;;;;;;5010529;28;20762;-82
2023/09/02 04:43:34;;;;;;;21.80;16.17;;;12.50;99.90;;;;;;5004385;28;20135;-82
2023/09/02 04:46:02;;;;;;;23.17;16.88;;;12.50;99.90;;;;;;5030520;28;20483;-82
2023/09/02 04:48:28;;;;;;;23.48;17.25;;;12.50;99.90;;;;;;5024552;28;20048;-82
2023/09/02 04:50:54;;;;;;;23.70;18.00;;;12.50;99.90;;;;;;5002927;28;20097;-83
2023/09/02 04:53:20;;;;;;;25.05;18.48;;;12.50;99.90;;;;;;5025533;28;20765;-83
2023/09/02 04:55:47;;;;;;;23.48;17.02;;;12.50;99.90;;;;;;5013094;28;20112;-83
2023/09/02 04:58:13;;;;;;;24.98;17.42;;;12.60;99.90;;;;;;5026248;28;20128;-83
2023/09/02 05:00:39;;;;;;;21.42;16.40;;;12.60;99.90;;;;;;5008824;28;20120;-82
2023/09/02 05:03:05;;;;;;;22.42;17.17;;;12.60;99.90;;;;;;5010096;28;20029;-83
2023/09/02 05:05:34;;;;;;;22.88;17.15;;;12.60;99.90;;;;;;5002808;28;20050;-83
2023/09/02 05:08:00;;;;;;;26.88;17.63;;;12.70;99.90;;;;;;5007578;28;20041;-83
2023/09/02 05:10:26;;;;;;;27.83;19.05;;;12.80;99.90;;;;;;5021943;28;20045;-83
2023/09/02 05:12:52;;;;;;;25.27;19.02;;;12.80;99.90;;;;;;5012295;28;20037;-83
2023/09/02 05:15:18;;;;;;;24.25;17.23;;;12.80;99.90;;;;;;5007491;28;20519;-83
2023/09/02 05:17:44;;;;;;;23.17;17.05;;;12.90;99.90;;;;;;5022225;28;20116;-82
2023/09/02 05:20:10;;;;;;;20.63;15.75;;;12.90;99.90;;;;;;5027142;28;20037;-83
2023/09/02 05:22:36;;;;;;;20.55;15.85;;;12.90;99.90;;;;;;5019350;28;20081;-83
2023/09/02 05:25:03;;;;;;;23.77;15.88;;;12.90;99.90;;;;;;5008203;28;20448;-82
2023/09/02 05:27:29;;;;;;;21.02;15.45;;;13.00;99.90;;;;;;5024726;28;20041;-83
2023/09/02 05:29:55;;;;;;;20.73;14.73;;;13.00;99.90;;;;;;5003489;28;20388;-82
2023/09/02 05:32:20;;;;;;;22.58;16.73;;;13.00;99.90;;;;;;5032301;28;20053;-83
2023/09/02 05:34:46;;;;;;;24.80;17.30;;;13.00;99.90;;;;;;5020027;28;20095;-82
2023/09/02 05:37:12;;;;;;;21.13;16.38;;;13.00;99.90;;;;;;5002291;28;20143;-83
2023/09/02 05:39:38;;;;;;;21.67;17.25;;;13.00;99.90;;;;;;5009138;28;20037;-83
2023/09/02 05:42:04;;;;;;;21.83;16.80;;;13.10;99.90;;;;;;5007165;28;20124;-83
2023/09/02 05:44:31;;;;;;;23.15;16.60;;;13.10;99.90;;;;;;5033189;28;20041;-83
2023/09/02 05:46:56;;;;;;;23.73;18.33;;;13.20;99.90;;;;;;5016702;28;20092;-83
2023/09/02 05:49:22;;;;;;;23.60;17.33;;;13.20;99.90;;;;;;5026907;28;20508;-83
2023/09/02 05:51:48;;;;;;;23.02;17.38;;;13.20;99.90;;;;;;5006162;28;20077;-83
2023/09/02 05:54:14;;;;;;;23.20;16.88;;;13.20;99.90;;;;;;4988938;28;20139;-83
2023/09/02 05:56:40;;;;;;;23.67;17.13;;;13.30;99.90;;;;;;5011477;28;20044;-83
2023/09/02 05:59:06;;;;;;;27.83;20.15;;;13.30;99.90;;;;;;5010290;28;20482;-83
2023/09/02 06:01:32;;;;;;;28.90;19.98;;;13.30;99.90;;;;;;5016211;28;20049;-84
2023/09/02 06:03:57;;;;;;;29.10;21.88;;;13.30;99.90;;;;;;5010376;28;20059;-83
2023/09/02 06:06:24;;;;;;;30.33;21.08;;;13.40;99.90;;;;;;5031227;28;20045;-83
2023/09/02 06:08:49;;;;;;;29.90;21.77;;;13.40;99.90;;;;;;5004393;28;20041;-84
2023/09/02 06:11:15;;;;;;;27.38;21.27;;;13.30;99.90;;;;;;5030554;28;20048;-84
2023/09/02 06:13:41;;;;;;;30.30;21.90;;;13.30;99.90;;;;;;5003853;28;20052;-84
2023/09/02 06:16:08;;;;;;;31.23;22.08;;;13.30;99.90;;;;;;5009604;28;20049;-85
2023/09/02 06:18:35;;;;;;;28.00;21.42;;;13.30;99.90;;;;;;5029397;28;20084;-85
2023/09/02 06:21:14;;;;;;;30.27;22.40;;;13.40;99.90;;;;;;5013672;28;20599;-83
2023/09/02 06:23:43;;;;;;;29.88;22.45;;;13.30;99.90;;;;;;5005241;28;20038;-84
2023/09/02 06:26:11;;;;;;;32.40;22.67;;;13.40;99.90;;;;;;5013411;28;20129;-83
2023/09/02 06:28:37;;;;;;;33.38;23.35;;;13.40;99.90;;;;;;5024041;28;20030;-84
2023/09/02 06:31:12;;;;;;;30.20;22.98;;;13.40;99.90;;;;;;5025300;28;20076;-83
2023/09/02 06:33:37;;;;;;;30.25;23.15;;;13.50;99.90;;;;;;5007704;28;20037;-83
2023/09/02 06:36:11;;;;;;;30.45;23.05;;;13.50;99.90;;;;;;5002081;28;20121;-83
2023/09/02 06:38:37;;;;;;;32.38;24.30;;;13.50;99.90;;;;;;5005239;28;20410;-83
2023/09/02 06:41:14;;;;;;;34.13;24.50;;;13.60;99.90;;;;;;5016847;28;20046;-84
2023/09/02 06:43:40;;;;;;;30.35;24.02;;;13.60;99.90;;;;;;5013717;28;20045;-83
2023/09/02 06:46:17;;;;;;;33.00;24.38;;;13.70;99.90;;;;;;5008671;28;20037;-84
2023/09/02 06:48:44;;;;;;;32.45;23.17;;;13.80;99.90;;;;;;5016010;28;20038;-84
2023/09/02 06:51:10;;;;;;;30.90;24.52;;;13.80;99.90;;;;;;5021804;28;20037;-83
2023/09/02 06:53:35;;;;;;;34.33;25.10;;;13.80;99.90;;;;;;5014479;28;20052;-83
2023/09/02 06:56:05;;;;;;;32.70;24.73;;;13.80;99.90;;;;;;5010146;28;20482;-83
2023/09/02 06:58:31;;;;;;;32.90;23.48;;;13.90;99.90;;;;;;5011300;28;20057;-84
2023/09/02 07:00:56;;;;;;;30.77;23.50;;;13.90;99.90;;;;;;5009783;28;20478;-86
2023/09/02 07:03:22;;;;;;;33.95;24.52;;;13.90;99.90;;;;;;5023990;28;20060;-85
2023/09/02 07:05:48;;;;;;;30.77;24.08;;;13.90;99.90;;;;;;5009710;28;20044;-84
2023/09/02 07:08:13;;;;;;;30.65;24.42;;;13.90;99.90;;;;;;5027056;28;20133;-85
2023/09/02 07:10:39;;;;;;;33.15;24.08;;;13.90;99.90;;;;;;5010692;28;20120;-86
2023/09/02 07:13:05;;;;;;;32.35;25.55;;;13.90;99.90;;;;;;5022880;28;20042;-86
2023/09/02 07:15:31;;;;;;;34.25;26.42;;;13.90;99.90;;;;;;5015492;28;20060;-87
2023/09/02 07:17:57;;;;;;;38.08;26.38;;;13.90;99.90;;;;;;4996338;28;20064;-84
2023/09/02 07:20:23;;;;;;;36.92;27.42;;;14.00;99.90;;;;;;5022248;28;20504;-84
2023/09/02 07:22:48;;;;;;;34.90;26.88;;;14.00;99.90;;;;;;5005742;28;20041;-84
2023/09/02 07:25:14;;;;;;;33.08;26.38;;;14.10;99.90;;;;;;5003067;28;20124;-84
2023/09/02 07:27:40;;;;;;;34.08;26.85;;;14.20;99.90;;;;;;4995316;28;20050;-84
2023/09/02 07:30:06;;;;;;;34.67;26.27;;;14.30;99.90;;;;;;5028739;28;20037;-84
2023/09/02 07:32:32;;;;;;;34.83;26.73;;;14.50;99.90;;;;;;5029391;28;20041;-84
2023/09/02 07:34:57;;;;;;;40.83;28.15;;;14.60;99.90;;;;;;5005471;28;20044;-84
2023/09/02 07:37:23;;;;;;;36.63;27.63;;;14.80;99.90;;;;;;5024105;28;20054;-84
2023/09/02 07:39:49;;;;;;;39.83;27.80;;;14.90;99.90;;;;;;5001901;28;20032;-84
2023/09/02 07:42:15;;;;;;;34.97;26.67;;;15.00;99.90;;;;;;5000985;28;20457;-84
2023/09/02 07:44:40;;;;;;;36.13;28.08;;;15.10;99.90;;;;;;5000448;28;20041;-84
2023/09/02 07:47:06;;;;;;;34.75;26.80;;;15.20;99.90;;;;;;5008876;28;20037;-84
2023/09/02 07:49:32;;;;;;;37.95;26.85;;;15.20;99.90;;;;;;5014244;28;20046;-84
2023/09/02 07:51:57;;;;;;;42.22;28.75;;;15.20;99.90;;;;;;5009145;28;20128;-84
2023/09/02 07:54:23;;;;;;;35.97;27.10;;;15.30;99.90;;;;;;5014159;28;20041;-84
2023/09/02 07:56:49;;;;;;;35.00;27.30;;;15.30;99.90;;;;;;5017049;28;20042;-84
2023/09/02 07:59:14;;;;;;;38.70;28.40;;;15.40;99.90;;;;;;5001203;28;20050;-84
2023/09/02 08:01:40;;;;;;;40.95;29.25;;;15.50;99.90;;;;;;5007001;28;20081;-84
2023/09/02 08:04:06;;;;;;;37.47;29.35;;;15.60;99.90;;;;;;5014133;28;20084;-84
2023/09/02 08:06:32;;;;;;;39.45;29.60;;;15.60;99.90;;;;;;5007847;28;20045;-84
2023/09/02 08:08:57;;;;;;;36.50;27.13;;;15.70;99.90;;;;;;5026971;28;20536;-84
2023/09/02 08:11:23;;;;;;;39.67;29.17;;;15.80;99.90;;;;;;4990395;28;20488;-84
2023/09/02 08:13:49;;;;;;;36.83;28.05;;;15.90;99.90;;;;;;5008060;28;20512;-84
2023/09/02 08:16:15;;;;;;;38.90;27.65;;;16.10;99.90;;;;;;5022101;28;20057;-84
2023/09/02 08:18:40;;;;;;;38.05;27.25;;;16.30;99.90;;;;;;5012889;28;20049;-84
2023/09/02 08:21:12;;;;;;;38.47;27.67;;;16.50;99.90;;;;;;5028972;28;20053;-84
2023/09/02 08:23:38;;;;;;;32.70;24.10;;;16.60;99.90;;;;;;5027581;28;20049;-84
2023/09/02 08:26:14;;;;;;;33.22;25.40;;;16.70;99.90;;;;;;5011596;28;20044;-85
2023/09/02 08:28:40;;;;;;;39.70;27.35;;;16.80;99.90;;;;;;5027406;28;20040;-84
2023/09/02 08:31:06;;;;;;;37.05;26.10;;;16.80;99.90;;;;;;5028348;28;20440;-85
2023/09/02 08:33:34;;;;;;;36.53;25.55;;;16.90;99.90;;;;;;5012794;28;20037;-85
2023/09/02 08:36:00;;;;;;;34.35;25.77;;;17.00;99.90;;;;;;5029716;28;20048;-87
2023/09/02 08:38:26;;;;;;;38.33;26.85;;;17.10;99.90;;;;;;4995461;28;20041;-85
2023/09/02 08:40:53;;;;;;;34.65;25.15;;;17.20;99.90;;;;;;5010105;28;20413;-85
2023/09/02 08:43:20;;;;;;;33.63;25.05;;;17.20;99.90;;;;;;5029897;28;20037;-84
2023/09/02 08:45:51;;;;;;;32.08;23.10;;;17.30;99.90;;;;;;5010591;28;20041;-84
2023/09/02 08:48:23;;;;;;;29.25;23.42;;;17.40;99.90;;;;;;5021660;28;20116;-84
2023/09/02 08:50:50;;;;;;;30.52;21.90;;;17.50;99.90;;;;;;5025178;28;20045;-85
2023/09/02 08:53:17;;;;;;;31.02;22.10;;;17.60;99.90;;;;;;5017596;28;20045;-85
2023/09/02 08:55:44;;;;;;;27.70;22.23;;;17.60;99.90;;;;;;4996063;28;20049;-87
2023/09/02 08:58:12;;;;;;;29.85;22.27;;;17.60;99.90;;;;;;5023010;28;20445;-85
2023/09/02 09:00:40;;;;;;;30.00;21.45;;;17.60;99.90;;;;;;5016252;28;20065;-85
2023/09/02 09:03:07;;;;;;;28.75;22.25;;;17.60;99.90;;;;;;5006912;28;20033;-85
2023/09/02 09:05:34;;;;;;;32.92;21.40;;;17.60;99.90;;;;;;5029068;28;20041;-85
2023/09/02 09:08:01;;;;;;;31.10;23.05;;;17.70;99.90;;;;;;5022474;28;20092;-86
2023/09/02 09:10:31;;;;;;;34.28;24.33;;;17.80;99.90;;;;;;5009945;28;20052;-84
2023/09/02 09:12:58;;;;;;;31.95;22.30;;;18.00;99.90;;;;;;5021944;28;20037;-85
2023/09/02 09:15:25;;;;;;;31.73;22.60;;;18.20;99.90;;;;;;5011477;28;20058;-85
2023/09/02 09:17:51;;;;;;;32.50;23.08;;;18.40;99.90;;;;;;5000949;28;20128;-84
2023/09/02 09:20:17;;;;;;;29.08;21.85;;;18.50;99.90;;;;;;5009825;28;20075;-85
2023/09/02 09:22:43;;;;;;;32.10;22.33;;;18.70;99.90;;;;;;5026515;28;20046;-87
2023/09/02 09:25:09;;;;;;;28.90;22.58;;;18.80;99.90;;;;;;5027854;28;20052;-86
2023/09/02 09:27:35;;;;;;;29.38;21.90;;;18.80;99.90;;;;;;5028245;28;20038;-86
2023/09/02 09:30:01;;;;;;;30.08;21.52;;;18.80;99.90;;;;;;5014370;28;20045;-85
2023/09/02 09:32:26;;;;;;;32.45;21.60;;;18.90;99.90;;;;;;5014066;28;20104;-84
2023/09/02 09:34:52;;;;;;;25.20;19.83;;;19.00;99.90;;;;;;5032793;28;20513;-85
2023/09/02 09:37:18;;;;;;;28.48;19.52;;;19.00;99.90;;;;;;5031802;28;20048;-87
2023/09/02 09:39:46;;;;;;;29.08;19.95;;;19.00;99.90;;;;;;5033065;28;20044;-85
2023/09/02 09:42:16;;;;;;;27.75;20.25;;;19.10;99.90;;;;;;5010066;28;20045;-84
2023/09/02 09:44:57;;;;;;;28.98;20.35;;;19.30;99.90;;;;;;5030705;28;20139;-86
2023/09/02 09:47:25;;;;;;;25.80;20.63;;;19.50;99.90;;;;;;5014002;28;20052;-84
2023/09/02 09:49:51;;;;;;;30.98;22.17;;;19.50;99.90;;;;;;5034207;28;20042;-84
2023/09/02 09:52:21;;;;;;;29.27;20.10;;;19.40;99.90;;;;;;5014840;28;20052;-85
2023/09/02 09:54:49;;;;;;;26.13;19.65;;;19.60;99.90;;;;;;5013464;28;20049;-86
2023/09/02 09:57:29;;;;;;;30.10;20.83;;;19.70;99.90;;;;;;5022091;28;20049;-85
2023/09/02 09:59:56;;;;;;;26.13;19.97;;;19.80;99.90;;;;;;5007150;28;20045;-84
2023/09/02 10:02:23;;;;;;;26.27;19.98;;;19.80;99.90;;;;;;5008278;28;20041;-85
2023/09/02 10:04:54;;;;;;;28.58;21.13;;;19.80;99.90;;;;;;5033164;28;20148;-84
2023/09/02 10:07:25;;;;;;;23.23;20.23;;;19.70;99.90;;;;;;5009900;28;20069;-86
2023/09/02 10:09:52;;;;;;;24.20;20.00;;;19.70;99.90;;;;;;5016780;28;20045;-85
2023/09/02 10:12:18;;;;;;;27.83;20.75;;;19.60;99.90;;;;;;5033096;28;20084;-84
2023/09/02 10:14:46;;;;;;;25.55;20.25;;;19.50;99.90;;;;;;5032364;28;20096;-84
2023/09/02 10:17:12;;;;;;;28.33;20.60;;;19.50;99.90;;;;;;5016345;28;20057;-85
2023/09/02 10:19:39;;;;;;;26.70;20.83;;;19.40;99.90;;;;;;5031126;28;20049;-84
2023/09/02 10:22:06;;;;;;;24.70;20.48;;;19.20;99.90;;;;;;5016553;28;20076;-85
2023/09/02 10:24:44;;;;;;;29.02;22.20;;;19.10;99.90;;;;;;5033123;28;20453;-85
2023/09/02 10:27:20;;;;;;;25.30;21.25;;;19.10;99.90;;;;;;5026980;28;20030;-85
2023/09/02 10:29:53;;;;;;;27.17;21.27;;;19.10;99.90;;;;;;5028502;28;20108;-88
2023/09/02 10:32:23;;;;;;;30.55;22.13;;;19.00;99.90;;;;;;5028255;28;20577;-88
2023/09/02 10:35:13;;;;;;;27.15;20.77;;;19.00;99.90;;;;;;5016348;28;20139;-85
2023/09/02 10:37:48;;;;;;;27.52;22.00;;;18.90;99.90;;;;;;5032715;28;20175;-85
2023/09/02 10:40:23;;;;;;;28.83;21.95;;;18.80;99.90;;;;;;5032083;28;20041;-85
2023/09/02 10:42:50;;;;;;;30.25;21.52;;;18.80;99.90;;;;;;5011288;28;20401;-86
2023/09/02 10:45:20;;;;;;;29.98;23.48;;;18.80;99.90;;;;;;5032963;28;20052;-85
2023/09/02 10:47:47;;;;;;;32.10;23.10;;;18.90;99.90;;;;;;5015834;28;20049;-84
2023/09/02 10:50:16;;;;;;;28.30;21.83;;;19.00;99.90;;;;;;5015952;28;20053;-85
2023/09/02 10:52:42;;;;;;;28.40;21.95;;;19.00;99.90;;;;;;5032162;28;20049;-85
2023/09/02 10:55:09;;;;;;;26.30;20.23;;;19.00;99.90;;;;;;5015607;28;20095;-87
2023/09/02 10:57:55;;;;;;;26.42;19.85;;;19.20;99.90;;;;;;5016270;28;20048;-87
2023/09/02 11:00:27;;;;;;;24.92;18.98;;;19.50;99.90;;;;;;5015802;28;20055;-84
2023/09/02 11:02:57;;;;;;;24.98;20.02;;;19.60;99.90;;;;;;5015852;28;20073;-85
2023/09/02 11:05:25;;;;;;;23.73;18.33;;;19.90;99.90;;;;;;5015298;28;20049;-86
2023/09/02 11:07:52;;;;;;;23.45;18.80;;;20.10;99.90;;;;;;5015199;28;20117;-85
2023/09/02 11:10:19;;;;;;;28.05;19.50;;;20.20;99.90;;;;;;5015735;28;20073;-85
2023/09/02 11:13:00;;;;;;;23.10;18.58;;;20.30;99.90;;;;;;5032042;28;20041;-86
2023/09/02 11:15:29;;;;;;;20.30;17.50;;;20.40;99.90;;;;;;5011956;28;20049;-86
2023/09/02 11:17:55;;;;;;;22.38;18.45;;;20.60;99.90;;;;;;5020398;28;20505;-85
2023/09/02 11:20:25;;;;;;;21.15;18.00;;;20.80;99.90;;;;;;5015198;28;20045;-85
2023/09/02 11:23:05;;;;;;;23.08;18.50;;;20.90;99.90;;;;;;5015379;28;20386;-85
2023/09/02 11:25:41;;;;;;;20.58;16.52;;;20.90;99.90;;;;;;5031891;28;20097;-85
2023/09/02 11:28:19;;;;;;;21.23;16.48;;;21.10;99.90;;;;;;5018231;28;20128;-86
2023/09/02 11:31:12;;;;;;;18.88;16.10;;;21.20;99.90;;;;;;5004962;28;20098;-87
2023/09/02 11:33:39;;;;;;;20.27;17.10;;;21.10;99.90;;;;;;5020606;28;20042;-85
2023/09/02 11:36:14;;;;;;;20.52;17.77;;;20.90;99.90;;;;;;5015244;28;20128;-85
2023/09/02 11:38:40;;;;;;;20.92;17.50;;;20.70;99.90;;;;;;5031277;28;20525;-86
2023/09/02 11:41:07;;;;;;;21.17;18.67;;;20.50;99.90;;;;;;5014593;28;20129;-85
2023/09/02 11:43:34;;;;;;;23.95;18.52;;;20.40;99.90;;;;;;5026424;28;20501;-86
2023/09/02 11:46:03;;;;;;;24.63;18.05;;;20.40;99.90;;;;;;5002796;28;20038;-87
2023/09/02 11:48:30;;;;;;;22.17;16.88;;;20.40;99.90;;;;;;5031324;28;20080;-85
2023/09/02 11:50:59;;;;;;;21.48;17.60;;;20.30;99.90;;;;;;5031556;28;20057;-85
2023/09/02 11:53:30;;;;;;;19.92;17.10;;;20.20;99.90;;;;;;5009617;28;20044;-86
2023/09/02 11:55:59;;;;;;;17.95;15.90;;;20.20;99.90;;;;;;5014710;28;20049;-85
2023/09/02 11:58:24;;;;;;;19.40;16.92;;;20.40;99.90;;;;;;5017983;28;20046;-86
2023/09/02 12:00:50;;;;;;;21.30;16.65;;;20.60;99.90;;;;;;5013365;28;20041;-85
2023/09/02 12:03:31;;;;;;;20.63;17.35;;;20.90;99.90;;;;;;5022499;28;20477;-86
2023/09/02 12:06:02;;;;;;;22.30;17.27;;;21.10;99.90;;;;;;5028902;28;20099;-88
2023/09/02 12:08:31;;;;;;;19.63;16.70;;;21.00;99.90;;;;;;5014184;28;20111;-87
2023/09/02 12:11:03;;;;;;;21.15;16.42;;;20.80;99.90;;;;;;5010371;28;20076;-85
2023/09/02 12:13:30;;;;;;;20.95;15.98;;;20.60;99.90;;;;;;5012341;28;20045;-87
2023/09/02 12:15:56;;;;;;;20.38;16.27;;;20.50;99.90;;;;;;5013678;28;20198;-86
2023/09/02 12:18:24;;;;;;;18.58;16.20;;;20.60;99.90;;;;;;5030574;28;20057;-85
2023/09/02 12:20:50;;;;;;;18.23;16.33;;;20.70;99.90;;;;;;5031397;28;20084;-86
2023/09/02 12:23:16;;;;;;;19.70;16.38;;;20.80;99.90;;;;;;5031038;28;20045;-84
2023/09/02 12:25:59;;;;;;;20.33;17.05;;;20.80;99.90;;;;;;5028694;28;20102;-86
2023/09/02 12:28:29;;;;;;;19.33;15.52;;;20.90;99.90;;;;;;5013602;28;20049;-84
2023/09/02 12:30:55;;;;;;;17.35;15.18;;;21.20;99.90;;;;;;5030750;28;20049;-85